createdAt,value
2018-12-19T00:00:23.666Z,3.00
2018-12-19T00:02:52.855Z,3.00
2018-12-19T00:05:22.165Z,3.00
2018-12-19T00:07:51.344Z,3.00
2018-12-19T00:10:20.523Z,3.00
2018-12-19T00:12:49.712Z,3.10
2018-12-19T00:15:23.418Z,3.10
2018-12-19T00:17:52.592Z,3.10
2018-12-19T00:20:21.787Z,3.10
2018-12-19T00:22:50.970Z,3.10
2018-12-19T00:25:20.186Z,3.10
2018-12-19T00:27:49.362Z,3.10
2018-12-19T00:30:18.671Z,3.00
2018-12-19T00:32:47.846Z,3.10
2018-12-19T00:35:17.052Z,3.00
2018-12-19T00:37:46.228Z,3.00
2018-12-19T00:40:18.570Z,3.00
2018-12-19T00:42:47.730Z,3.00
2018-12-19T00:45:17.031Z,2.90
2018-12-19T00:47:46.199Z,2.90
2018-12-19T00:50:15.476Z,2.90
2018-12-19T00:52:44.666Z,2.90
2018-12-19T00:55:13.895Z,3.00
2018-12-19T00:57:43.069Z,2.90
2018-12-19T01:00:12.434Z,2.80
2018-12-19T01:02:41.625Z,2.80
2018-12-19T01:05:10.889Z,2.80
2018-12-19T01:07:40.067Z,2.80
2018-12-19T01:10:09.346Z,2.80
2018-12-19T01:12:38.706Z,2.80
2018-12-19T01:15:08.128Z,2.80
2018-12-19T01:17:37.308Z,2.70
2018-12-19T01:20:06.678Z,2.60
2018-12-19T01:22:35.946Z,2.70
2018-12-19T01:25:05.515Z,2.60
2018-12-19T01:27:34.663Z,2.60
2018-12-19T01:30:04.154Z,2.60
2018-12-19T01:32:33.314Z,2.60
2018-12-19T01:35:02.482Z,2.50
2018-12-19T01:37:31.627Z,2.50
2018-12-19T01:40:00.817Z,2.50
2018-12-19T01:42:29.977Z,2.50
2018-12-19T01:44:59.299Z,2.50
2018-12-19T01:47:28.550Z,2.40
2018-12-19T01:49:58.710Z,2.40
2018-12-19T01:52:27.875Z,2.40
2018-12-19T01:54:57.054Z,2.40
2018-12-19T01:57:26.230Z,2.30
2018-12-19T01:59:55.406Z,2.30
2018-12-19T02:02:24.743Z,2.30
2018-12-19T02:04:53.931Z,2.30
2018-12-19T02:07:23.098Z,2.30
2018-12-19T02:09:52.278Z,2.30
2018-12-19T02:12:21.430Z,2.30
2018-12-19T02:14:50.639Z,2.20
2018-12-19T02:17:19.803Z,2.20
2018-12-19T02:19:48.993Z,2.20
2018-12-19T02:22:18.150Z,2.20
2018-12-19T02:24:47.333Z,2.10
2018-12-19T02:27:16.526Z,2.10
2018-12-19T02:29:45.694Z,2.10
2018-12-19T02:32:14.859Z,2.10
2018-12-19T02:34:44.140Z,2.10
2018-12-19T02:37:13.355Z,2.10
2018-12-19T02:39:42.542Z,2.00
2018-12-19T02:42:11.722Z,2.00
2018-12-19T02:44:41.286Z,2.00
2018-12-19T02:47:10.456Z,2.00
2018-12-19T02:49:39.642Z,2.00
2018-12-19T02:52:08.803Z,2.00
2018-12-19T02:54:37.978Z,2.00
2018-12-19T02:57:07.135Z,2.00
2018-12-19T02:59:36.330Z,1.90
2018-12-19T03:02:05.582Z,2.00
2018-12-19T03:04:34.806Z,2.00
2018-12-19T03:07:04.051Z,1.90
2018-12-19T03:09:33.225Z,1.90
2018-12-19T03:12:02.390Z,1.90
2018-12-19T03:14:31.587Z,1.90
2018-12-19T03:17:00.734Z,1.80
2018-12-19T03:19:29.982Z,1.80
2018-12-19T03:21:59.156Z,1.80
2018-12-19T03:24:28.396Z,1.70
2018-12-19T03:26:57.583Z,1.70
2018-12-19T03:29:26.854Z,1.70
2018-12-19T03:31:56.124Z,1.70
2018-12-19T03:34:25.395Z,1.70
2018-12-19T03:36:54.575Z,1.70
2018-12-19T03:39:24.094Z,1.70
2018-12-19T03:41:53.406Z,1.60
2018-12-19T03:44:22.655Z,1.60
2018-12-19T03:46:51.824Z,1.70
2018-12-19T03:49:21.491Z,1.60
2018-12-19T03:51:50.875Z,1.60
2018-12-19T03:54:20.375Z,1.60
2018-12-19T03:56:49.954Z,1.60
2018-12-19T03:59:19.110Z,1.60
2018-12-19T04:01:48.280Z,1.60
2018-12-19T04:04:17.447Z,1.60
2018-12-19T04:06:46.629Z,1.60
2018-12-19T04:09:16.164Z,1.60
2018-12-19T04:11:45.343Z,1.60
2018-12-19T04:14:14.553Z,1.60
2018-12-19T04:16:43.754Z,1.60
2018-12-19T04:19:12.930Z,1.60
2018-12-19T04:21:42.242Z,1.60
2018-12-19T04:24:11.402Z,1.60
2018-12-19T04:26:40.579Z,1.60
2018-12-19T04:29:09.822Z,1.60
2018-12-19T04:31:39.096Z,1.60
2018-12-19T04:34:08.276Z,1.70
2018-12-19T04:36:37.540Z,1.60
2018-12-19T04:39:07.725Z,1.60
2018-12-19T04:41:36.901Z,1.60
2018-12-19T04:44:06.087Z,1.60
2018-12-19T04:46:35.385Z,1.60
2018-12-19T04:49:04.542Z,1.60
2018-12-19T04:51:33.801Z,1.60
2018-12-19T04:54:02.969Z,1.60
2018-12-19T04:56:32.296Z,1.60
2018-12-19T04:59:01.513Z,1.60
2018-12-19T05:01:30.731Z,1.60
2018-12-19T05:03:59.916Z,1.60
2018-12-19T05:06:29.134Z,1.60
2018-12-19T05:08:58.299Z,1.50
2018-12-19T05:11:27.796Z,1.50
2018-12-19T05:13:56.986Z,1.60
2018-12-19T05:16:26.189Z,1.50
2018-12-19T05:18:55.434Z,1.50
2018-12-19T05:21:24.619Z,1.50
2018-12-19T05:23:53.775Z,1.50
2018-12-19T05:26:23.007Z,1.50
2018-12-19T05:28:52.244Z,1.50
2018-12-19T05:31:22.416Z,1.50
2018-12-19T05:33:51.582Z,1.50
2018-12-19T05:36:20.837Z,1.40
2018-12-19T05:38:50.047Z,1.40
2018-12-19T05:41:20.269Z,1.40
2018-12-19T05:43:49.427Z,1.40
2018-12-19T05:46:18.631Z,1.40
2018-12-19T05:48:47.806Z,1.40
2018-12-19T05:51:16.994Z,1.50
2018-12-19T05:53:46.218Z,1.40
2018-12-19T05:56:15.414Z,1.40
2018-12-19T05:58:44.618Z,1.40
2018-12-19T06:01:13.950Z,1.50
2018-12-19T06:03:43.117Z,1.40
2018-12-19T06:06:12.311Z,1.50
2018-12-19T06:08:41.490Z,1.50
2018-12-19T06:11:10.698Z,1.50
2018-12-19T06:13:39.915Z,1.50
2018-12-19T06:16:09.138Z,1.40
2018-12-19T06:18:38.302Z,1.40
2018-12-19T06:21:07.597Z,1.50
2018-12-19T06:23:36.763Z,1.50
2018-12-19T06:26:06.057Z,1.50
2018-12-19T06:28:36.254Z,1.50
2018-12-19T06:31:05.518Z,1.50
2018-12-19T06:33:35.574Z,1.50
2018-12-19T06:36:05.030Z,1.50
2018-12-19T06:38:34.216Z,1.50
2018-12-19T06:41:03.499Z,1.50
2018-12-19T06:43:32.683Z,1.50
2018-12-19T06:46:01.975Z,1.50
2018-12-19T06:48:31.215Z,1.60
2018-12-19T06:51:00.371Z,1.60
2018-12-19T06:53:29.546Z,1.60
2018-12-19T06:55:58.706Z,1.60
2018-12-19T06:58:27.918Z,1.60
2018-12-19T07:00:57.100Z,1.60
2018-12-19T07:03:26.307Z,1.60
2018-12-19T07:05:55.486Z,1.70
2018-12-19T07:08:24.670Z,1.70
2018-12-19T07:10:53.918Z,1.70
2018-12-19T07:13:23.289Z,1.70
2018-12-19T07:15:52.487Z,1.70
2018-12-19T07:18:21.663Z,1.70
2018-12-19T07:20:50.818Z,1.70
2018-12-19T07:23:20.022Z,1.70
2018-12-19T07:25:49.211Z,1.70
2018-12-19T07:28:18.470Z,1.80
2018-12-19T07:30:47.637Z,1.80
2018-12-19T07:33:16.910Z,1.70
2018-12-19T07:35:46.091Z,1.80
2018-12-19T07:38:15.270Z,1.70
2018-12-19T07:40:45.840Z,1.70
2018-12-19T07:43:15.260Z,1.80
2018-12-19T07:45:44.422Z,1.80
2018-12-19T07:48:13.984Z,1.80
2018-12-19T07:50:43.145Z,1.80
2018-12-19T07:53:12.335Z,1.90
2018-12-19T07:55:42.183Z,1.90
2018-12-19T07:58:11.370Z,1.90
2018-12-19T08:00:40.587Z,1.90
2018-12-19T08:03:09.766Z,1.90
2018-12-19T08:05:38.923Z,2.00
2018-12-19T08:08:08.182Z,2.00
2018-12-19T08:10:37.338Z,2.00
2018-12-19T08:13:06.667Z,2.00
2018-12-19T08:15:35.838Z,2.00
2018-12-19T08:18:05.712Z,2.00
2018-12-19T08:20:35.079Z,2.00
2018-12-19T08:23:04.258Z,2.10
2018-12-19T08:25:33.432Z,2.10
2018-12-19T08:28:02.634Z,2.10
2018-12-19T08:30:31.794Z,2.10
2018-12-19T08:33:01.078Z,2.00
2018-12-19T08:35:30.266Z,2.10
2018-12-19T08:37:59.446Z,2.10
2018-12-19T08:40:28.630Z,2.00
2018-12-19T08:42:57.850Z,2.10
2018-12-19T08:45:27.546Z,2.00
2018-12-19T08:47:56.824Z,2.10
2018-12-19T08:50:25.998Z,2.10
2018-12-19T08:52:55.170Z,2.10
2018-12-19T08:55:24.336Z,2.10
2018-12-19T08:57:53.522Z,2.10
2018-12-19T09:00:24.124Z,2.10
2018-12-19T09:02:53.491Z,2.20
2018-12-19T09:05:22.638Z,2.20
2018-12-19T09:07:51.819Z,2.20
2018-12-19T09:10:21.074Z,2.20
2018-12-19T09:12:50.326Z,2.20
2018-12-19T09:15:27.858Z,2.20
2018-12-19T09:17:56.259Z,2.20
2018-12-19T09:20:25.442Z,2.30
2018-12-19T09:22:54.654Z,2.30
2018-12-19T09:25:23.815Z,2.30
2018-12-19T09:27:53.012Z,2.30
2018-12-19T09:30:22.275Z,2.30
2018-12-19T09:32:52.659Z,2.30
2018-12-19T09:35:21.963Z,2.40
2018-12-19T09:37:51.143Z,2.40
2018-12-19T09:40:20.307Z,2.40
2018-12-19T09:42:49.494Z,2.50
2018-12-19T09:45:18.651Z,2.50
2018-12-19T09:47:47.827Z,2.50
2018-12-19T09:50:17.079Z,2.50
2018-12-19T09:52:46.259Z,2.50
2018-12-19T09:55:15.435Z,2.60
2018-12-19T09:57:44.615Z,2.50
2018-12-19T10:00:19.150Z,2.50
2018-12-19T10:02:49.407Z,2.50
2018-12-19T10:05:18.741Z,2.60
2018-12-19T10:07:48.095Z,2.60
2018-12-19T10:10:17.265Z,2.60
2018-12-19T10:12:46.483Z,2.60
2018-12-19T10:15:15.670Z,2.60
2018-12-19T10:17:44.846Z,2.60
2018-12-19T10:20:14.022Z,2.60
2018-12-19T10:22:43.177Z,2.60
2018-12-19T10:25:13.642Z,2.60
2018-12-19T10:27:43.156Z,2.60
2018-12-19T10:30:14.293Z,2.60
2018-12-19T10:32:43.635Z,2.60
2018-12-19T10:35:13.267Z,2.60
2018-12-19T10:37:42.448Z,2.70
2018-12-19T10:40:12.802Z,2.60
2018-12-19T10:42:41.958Z,2.70
2018-12-19T10:45:11.880Z,2.70
2018-12-19T10:47:41.042Z,2.60
2018-12-19T10:50:11.430Z,2.60
2018-12-19T10:52:40.581Z,2.60
2018-12-19T10:55:10.454Z,2.70
2018-12-19T10:57:39.626Z,2.70
2018-12-19T11:00:18.518Z,2.70
2018-12-19T11:02:47.971Z,2.70
2018-12-19T11:05:17.167Z,2.70
2018-12-19T11:07:46.327Z,2.80
2018-12-19T11:10:15.615Z,2.80
2018-12-19T11:12:44.801Z,2.80
2018-12-19T11:15:14.006Z,2.80
2018-12-19T11:17:43.167Z,2.80
2018-12-19T11:20:12.450Z,2.80
2018-12-19T11:22:41.709Z,2.70
2018-12-19T11:25:11.110Z,2.80
2018-12-19T11:27:40.293Z,2.80
2018-12-19T11:30:10.301Z,2.70
2018-12-19T11:32:39.602Z,2.70
2018-12-19T11:35:09.063Z,2.70
2018-12-19T11:37:38.231Z,2.80
2018-12-19T11:40:09.409Z,2.80
2018-12-19T11:42:38.666Z,2.80
2018-12-19T11:45:08.044Z,2.80
2018-12-19T11:47:37.294Z,2.80
2018-12-19T11:50:08.575Z,2.80
2018-12-19T11:52:37.765Z,2.80
2018-12-19T11:55:07.427Z,2.80
2018-12-19T11:57:37.427Z,2.80
2018-12-19T12:00:09.338Z,2.90
2018-12-19T12:02:38.543Z,2.90
2018-12-19T12:05:07.920Z,2.90
2018-12-19T12:07:43.981Z,2.90
2018-12-19T12:10:13.287Z,3.00
2018-12-19T12:12:42.467Z,3.00
2018-12-19T12:15:11.761Z,3.00
2018-12-19T12:17:40.942Z,3.00
2018-12-19T12:20:10.214Z,3.00
2018-12-19T12:22:39.376Z,3.00
2018-12-19T12:25:08.678Z,3.00
2018-12-19T12:27:37.819Z,3.10
2018-12-19T12:30:07.974Z,3.10
2018-12-19T12:32:37.130Z,3.10
2018-12-19T12:35:08.278Z,3.10
2018-12-19T12:37:37.534Z,3.10
2018-12-19T12:40:08.587Z,3.00
2018-12-19T12:42:37.917Z,3.00
2018-12-19T12:45:07.624Z,2.90
2018-12-19T12:47:36.799Z,2.90
2018-12-19T12:50:06.811Z,2.90
2018-12-19T12:52:35.981Z,2.80
2018-12-19T12:55:06.027Z,2.90
2018-12-19T12:57:35.197Z,2.80
2018-12-19T13:00:06.711Z,2.80
2018-12-19T13:02:35.892Z,2.80
2018-12-19T13:05:05.410Z,2.80
2018-12-19T13:07:34.586Z,2.80
2018-12-19T13:10:04.598Z,2.70
2018-12-19T13:12:33.797Z,2.70
2018-12-19T13:15:03.247Z,2.70
2018-12-19T13:17:32.621Z,2.60
2018-12-19T13:20:01.820Z,2.70
2018-12-19T13:22:31.101Z,2.70
2018-12-19T13:25:00.323Z,2.60
2018-12-19T13:27:29.479Z,2.60
2018-12-19T13:29:58.666Z,2.60
2018-12-19T13:32:27.822Z,2.60
2018-12-19T13:34:57.034Z,2.60
2018-12-19T13:37:27.554Z,2.60
2018-12-19T13:39:56.926Z,2.50
2018-12-19T13:42:26.123Z,2.50
2018-12-19T13:44:55.314Z,2.50
2018-12-19T13:47:24.512Z,2.50
2018-12-19T13:49:53.687Z,2.50
2018-12-19T13:52:22.939Z,2.50
2018-12-19T13:54:52.134Z,2.50
2018-12-19T13:57:21.311Z,2.50
2018-12-19T13:59:50.511Z,2.50
2018-12-19T14:02:19.671Z,2.50
2018-12-19T14:04:49.091Z,2.50
2018-12-19T14:07:18.362Z,2.50
2018-12-19T14:09:47.780Z,2.50
2018-12-19T14:12:16.946Z,2.50
2018-12-19T14:14:46.181Z,2.50
2018-12-19T14:17:15.407Z,2.40
2018-12-19T14:19:44.692Z,2.50
2018-12-19T14:22:13.843Z,2.40
2018-12-19T14:24:43.030Z,2.50
2018-12-19T14:27:12.209Z,2.50
2018-12-19T14:29:41.475Z,2.50
2018-12-19T14:32:10.675Z,2.50
2018-12-19T14:34:39.936Z,2.50
2018-12-19T14:37:09.207Z,2.50
2018-12-19T14:39:38.379Z,2.50
2018-12-19T14:42:07.575Z,2.50
2018-12-19T14:44:36.764Z,2.50
2018-12-19T14:47:05.982Z,2.50
2018-12-19T14:49:35.198Z,2.50
2018-12-19T14:52:04.386Z,2.50
2018-12-19T14:54:33.578Z,2.50
2018-12-19T14:57:02.775Z,2.50
2018-12-19T14:59:31.944Z,2.50
2018-12-19T15:02:01.169Z,2.50
2018-12-19T15:04:30.341Z,2.50
2018-12-19T15:06:59.518Z,2.50
2018-12-19T15:09:28.713Z,2.50
2018-12-19T15:11:58.514Z,2.50
2018-12-19T15:14:27.791Z,2.50
2018-12-19T15:16:57.074Z,2.60
2018-12-19T15:19:26.579Z,2.50
2018-12-19T15:21:55.753Z,2.50
2018-12-19T15:24:24.920Z,2.50
2018-12-19T15:26:54.119Z,2.50
2018-12-19T15:29:23.287Z,2.50
2018-12-19T15:31:52.469Z,2.50
2018-12-19T15:34:21.655Z,2.50
2018-12-19T15:36:50.846Z,2.50
2018-12-19T15:39:20.819Z,2.50
2018-12-19T15:41:49.982Z,2.60
2018-12-19T15:44:19.185Z,2.60
2018-12-19T15:46:48.348Z,2.60
2018-12-19T15:49:17.537Z,2.60
2018-12-19T15:51:46.815Z,2.60
2018-12-19T15:54:16.063Z,2.60
2018-12-19T15:56:45.342Z,2.50
2018-12-19T15:59:14.506Z,2.50
2018-12-19T16:01:43.773Z,2.50
2018-12-19T16:04:13.034Z,2.50
2018-12-19T16:06:42.210Z,2.50
2018-12-19T16:09:11.371Z,2.60
2018-12-19T16:11:40.573Z,2.60
2018-12-19T16:14:09.769Z,2.60
2018-12-19T16:16:39.150Z,2.60
2018-12-19T16:19:08.410Z,2.70
2018-12-19T16:21:37.631Z,2.70
2018-12-19T16:24:06.886Z,2.70
2018-12-19T16:26:36.064Z,2.60
2018-12-19T16:29:05.402Z,2.60
2018-12-19T16:31:34.590Z,2.60
2018-12-19T16:34:03.895Z,2.60
2018-12-19T16:36:33.079Z,2.50
2018-12-19T16:39:02.266Z,2.60
2018-12-19T16:41:31.498Z,2.60
2018-12-19T16:44:00.650Z,2.50
2018-12-19T16:46:29.926Z,2.50
2018-12-19T16:48:59.082Z,2.50
2018-12-19T16:51:28.280Z,2.60
2018-12-19T16:53:57.459Z,2.60
2018-12-19T16:56:26.647Z,2.60
2018-12-19T16:58:55.824Z,2.60
2018-12-19T17:01:25.102Z,2.60
2018-12-19T17:03:54.278Z,2.60
2018-12-19T17:06:23.567Z,2.60
2018-12-19T17:08:52.762Z,2.60
2018-12-19T17:11:21.991Z,2.60
2018-12-19T17:13:51.250Z,2.60
2018-12-19T17:16:20.459Z,2.60
2018-12-19T17:18:49.635Z,2.60
2018-12-19T17:21:19.270Z,2.60
2018-12-19T17:23:48.434Z,2.60
2018-12-19T17:26:17.779Z,2.70
2018-12-19T17:28:46.951Z,2.60
2018-12-19T17:31:16.230Z,2.60
2018-12-19T17:33:45.431Z,2.70
2018-12-19T17:36:14.621Z,2.70
2018-12-19T17:38:43.812Z,2.60
2018-12-19T17:41:13.154Z,2.60
2018-12-19T17:43:42.363Z,2.50
2018-12-19T17:46:11.558Z,2.60
2018-12-19T17:48:40.747Z,2.60
2018-12-19T17:51:09.923Z,2.60
2018-12-19T17:53:39.110Z,2.60
2018-12-19T17:56:08.276Z,2.60
2018-12-19T17:58:37.460Z,2.60
2018-12-19T18:01:06.714Z,2.60
2018-12-19T18:03:35.897Z,2.50
2018-12-19T18:06:05.257Z,2.50
2018-12-19T18:08:34.455Z,2.50
2018-12-19T18:11:03.618Z,2.50
2018-12-19T18:13:32.926Z,2.50
2018-12-19T18:16:02.282Z,2.50
2018-12-19T18:18:31.482Z,2.50
2018-12-19T18:21:00.652Z,2.50
2018-12-19T18:23:29.846Z,2.50
2018-12-19T18:25:59.042Z,2.50
2018-12-19T18:28:28.268Z,2.50
2018-12-19T18:30:57.439Z,2.50
2018-12-19T18:33:26.637Z,2.50
2018-12-19T18:35:55.803Z,2.50
2018-12-19T18:38:24.993Z,2.50
2018-12-19T18:40:54.333Z,2.50
2018-12-19T18:43:23.610Z,2.50
2018-12-19T18:45:52.937Z,2.50
2018-12-19T18:48:22.190Z,2.50
2018-12-19T18:50:51.385Z,2.40
2018-12-19T18:53:20.579Z,2.40
2018-12-19T18:55:50.420Z,2.40
2018-12-19T18:58:19.711Z,2.40
2018-12-19T19:00:48.998Z,2.40
2018-12-19T19:03:18.361Z,2.40
2018-12-19T19:05:47.828Z,2.40
2018-12-19T19:08:17.159Z,2.40
2018-12-19T19:10:46.313Z,2.40
2018-12-19T19:13:19.697Z,2.40
2018-12-19T19:15:46.770Z,2.40
2018-12-19T19:18:17.490Z,2.40
2018-12-19T19:20:46.638Z,2.40
2018-12-19T19:23:15.834Z,2.40
2018-12-19T19:25:45.042Z,2.40
2018-12-19T19:28:14.239Z,2.40
2018-12-19T19:30:43.417Z,2.40
2018-12-19T19:33:12.699Z,2.40
2018-12-19T19:35:42.038Z,2.40
2018-12-19T19:38:11.264Z,2.40
2018-12-19T19:40:40.441Z,2.40
2018-12-19T19:43:09.742Z,2.40
2018-12-19T19:45:39.004Z,2.40
2018-12-19T19:48:08.186Z,2.40
2018-12-19T19:50:37.351Z,2.30
2018-12-19T19:53:06.614Z,2.40
2018-12-19T19:55:35.803Z,2.40
2018-12-19T19:58:05.058Z,2.40
2018-12-19T20:00:35.720Z,2.40
2018-12-19T20:03:05.800Z,2.40
2018-12-19T20:05:34.979Z,2.40
2018-12-19T20:08:04.221Z,2.40
2018-12-19T20:10:33.496Z,2.40
2018-12-19T20:13:02.691Z,2.40
2018-12-19T20:15:32.062Z,2.50
2018-12-19T20:18:01.351Z,2.50
2018-12-19T20:20:31.694Z,2.50
2018-12-19T20:23:00.892Z,2.40
2018-12-19T20:25:30.083Z,2.40
2018-12-19T20:27:59.422Z,2.40
2018-12-19T20:30:28.689Z,2.40
2018-12-19T20:32:57.946Z,2.40
2018-12-19T20:35:27.106Z,2.40
2018-12-19T20:37:56.311Z,2.40
2018-12-19T20:40:25.554Z,2.30
2018-12-19T20:42:54.753Z,2.40
2018-12-19T20:45:23.952Z,2.40
2018-12-19T20:47:53.155Z,2.40
2018-12-19T20:50:22.403Z,2.30
2018-12-19T20:52:51.767Z,2.40
2018-12-19T20:55:21.034Z,2.40
2018-12-19T20:57:50.241Z,2.40
2018-12-19T21:00:19.582Z,2.40
2018-12-19T21:02:48.782Z,2.30
2018-12-19T21:05:19.024Z,2.30
2018-12-19T21:07:48.386Z,2.40
2018-12-19T21:10:18.728Z,2.40
2018-12-19T21:12:47.964Z,2.40
2018-12-19T21:15:17.250Z,2.30
2018-12-19T21:17:51.831Z,2.30
2018-12-19T21:20:21.135Z,2.30
2018-12-19T21:22:50.845Z,2.40
2018-12-19T21:25:20.090Z,2.40
2018-12-19T21:27:49.386Z,2.40
2018-12-19T21:30:18.728Z,2.40
2018-12-19T21:32:47.974Z,2.40
2018-12-19T21:35:17.162Z,2.40
2018-12-19T21:37:46.354Z,2.40
2018-12-19T21:40:15.853Z,2.50
2018-12-19T21:42:45.168Z,2.40
2018-12-19T21:45:14.629Z,2.40
2018-12-19T21:47:43.910Z,2.30
2018-12-19T21:50:13.461Z,2.40
2018-12-19T21:52:42.960Z,2.30
2018-12-19T21:55:12.253Z,2.30
2018-12-19T21:57:41.434Z,2.40
2018-12-19T22:00:15.184Z,2.40
2018-12-19T22:02:44.422Z,2.30
2018-12-19T22:05:13.643Z,2.30
2018-12-19T22:07:43.070Z,2.30
2018-12-19T22:10:12.530Z,2.30
2018-12-19T22:12:41.920Z,2.30
2018-12-19T22:15:11.297Z,2.30
2018-12-19T22:17:45.786Z,2.30
2018-12-19T22:20:15.040Z,2.30
2018-12-19T22:22:44.212Z,2.30
2018-12-19T22:25:13.433Z,2.30
2018-12-19T22:27:42.813Z,2.30
2018-12-19T22:30:12.280Z,2.30
2018-12-19T22:32:41.504Z,2.30
2018-12-19T22:35:10.755Z,2.30
2018-12-19T22:37:40.219Z,2.30
2018-12-19T22:40:11.365Z,2.30
2018-12-19T22:42:40.599Z,2.30
2018-12-19T22:45:10.099Z,2.20
2018-12-19T22:47:39.476Z,2.30
2018-12-19T22:50:09.006Z,2.20
2018-12-19T22:52:38.354Z,2.20
2018-12-19T22:55:07.778Z,2.20
2018-12-19T22:57:37.076Z,2.30
2018-12-19T23:00:13.488Z,2.20
2018-12-19T23:02:48.026Z,2.20
2018-12-19T23:05:21.550Z,2.20
2018-12-19T23:07:50.825Z,2.20
2018-12-19T23:10:20.119Z,2.20
2018-12-19T23:12:49.327Z,2.20
2018-12-19T23:15:20.355Z,2.20
2018-12-19T23:17:49.510Z,2.20
2018-12-19T23:20:18.699Z,2.20
2018-12-19T23:22:47.904Z,2.20
2018-12-19T23:25:17.209Z,2.30
2018-12-19T23:27:46.548Z,2.30
2018-12-19T23:30:15.847Z,2.30
2018-12-19T23:32:45.171Z,2.30
2018-12-19T23:35:14.463Z,2.30
2018-12-19T23:37:43.698Z,2.30
2018-12-19T23:40:13.694Z,2.30
2018-12-19T23:42:43.133Z,2.30
2018-12-19T23:45:12.394Z,2.30
2018-12-19T23:47:41.868Z,2.30
2018-12-19T23:50:11.419Z,2.30
2018-12-19T23:52:40.717Z,2.30
2018-12-19T23:55:09.897Z,2.30
2018-12-19T23:57:39.054Z,2.30
